Time;durP1;ratioP1;P1;durP2;ratioP2;P2;SDS_P1;SDS_P2;PMS_P1;PMS_P2;Temp;Humidity;BMP_temperature;BMP_pressure;BME280_temperature;BME280_humidity;BME280_pressure;Samples;Min_cycle;Max_cycle;Signal;HPM_P1;HPM_P2
2023/11/04 07:37:07;;;;;;;5.45;1.85;;;12.10;99.90;;;;;;7303589;19;20050;-82
2023/11/04 09:28:59;;;;;;;;;;;;;;;;;;;;;
2023/11/04 09:31:40;;;;;;;0.93;0.73;;;12.60;99.90;;;;;;7385992;19;20038;-82
2023/11/04 09:34:22;;;;;;;0.80;0.80;;;12.50;99.90;;;;;;7386052;19;20007;-83
2023/11/04 09:37:17;;;;;;;;;;;;;;;;;;;;;
2023/11/04 09:40:20;;;;;;;1.38;0.80;;;12.60;99.90;;;;;;7385139;19;20006;-83
2023/11/04 09:43:52;;;;;;;0.77;0.70;;;12.80;99.90;;;;;;7388302;19;20042;-82
2023/11/04 09:46:47;;;;;;;1.17;0.73;;;12.80;99.90;;;;;;7385773;19;20011;-83
2023/11/04 09:49:21;;;;;;;0.65;0.45;;;12.90;99.90;;;;;;7386657;19;20323;-81
2023/11/04 09:52:13;;;;;;;4.43;0.90;;;12.70;99.90;;;;;;7384206;19;20400;-82
2023/11/04 10:04:18;;;;;;;1.83;0.70;;;13.00;99.90;;;;;;7409702;19;19990;-82
2023/11/04 10:06:47;;;;;;;;;;;13.10;99.90;;;;;;7387770;19;20014;-82
2023/11/04 10:09:23;;;;;;;6.65;0.93;;;13.30;99.90;;;;;;7384459;19;19918;-83
2023/11/04 10:12:00;;;;;;;2.33;0.90;;;13.30;99.90;;;;;;7370778;19;20007;-84
2023/11/04 10:17:46;;;;;;;3.63;1.00;;;13.20;99.90;;;;;;7391767;19;20010;-80
2023/11/04 10:30:15;;;;;;;5.85;1.15;;;13.00;99.90;;;;;;7421694;19;20344;-81
2023/11/04 10:32:55;;;;;;;7.38;1.88;;;13.00;99.90;;;;;;7420462;19;20003;-81
2023/11/04 10:35:25;;;;;;;9.38;1.98;;;13.10;99.90;;;;;;7418448;19;20017;-78
2023/11/04 10:47:08;;;;;;;11.57;2.22;;;13.30;99.90;;;;;;7368123;19;20399;-81
2023/11/04 10:49:47;;;;;;;17.33;3.03;;;13.20;99.90;;;;;;7417981;19;20043;-76
2023/11/04 10:52:21;;;;;;;17.98;4.05;;;13.10;99.90;;;;;;7416491;19;20389;-77
2023/11/04 10:54:58;;;;;;;21.77;5.10;;;13.10;99.90;;;;;;7417641;19;20260;-79
2023/11/04 10:57:38;;;;;;;15.63;2.47;;;13.20;99.90;;;;;;7420340;19;20010;-80
2023/11/04 11:00:13;;;;;;;17.90;2.60;;;13.20;99.90;;;;;;7417447;19;20014;-76
2023/11/04 11:02:44;;;;;;;21.10;4.03;;;13.20;99.90;;;;;;7416394;19;20020;-79
2023/11/04 11:05:22;;;;;;;24.77;4.20;;;13.30;99.90;;;;;;7439714;19;20361;-77
2023/11/04 11:07:52;;;;;;;32.42;6.68;;;13.40;99.90;;;;;;7422884;19;20006;-76
2023/11/04 11:10:24;;;;;;;18.42;4.22;;;13.50;99.90;;;;;;7428233;19;20010;-79
2023/11/04 11:13:06;;;;;;;30.20;6.40;;;13.70;99.90;;;;;;7424827;19;20031;-78
2023/11/04 11:15:35;;;;;;;26.63;6.03;;;13.60;99.90;;;;;;7419838;19;20589;-77
2023/11/04 11:18:04;;;;;;;25.35;4.53;;;13.70;99.90;;;;;;7418035;19;20011;-75
2023/11/04 11:27:34;;;;;;;25.90;4.50;;;14.00;99.90;;;;;;7451848;19;20014;-86
2023/11/04 11:30:24;;;;;;;28.75;4.05;;;13.80;99.90;;;;;;7431632;19;20019;-82
2023/11/04 11:33:16;;;;;;;32.40;5.90;;;14.00;99.90;;;;;;7424675;19;20028;-81
2023/11/04 11:36:20;;;;;;;;;;;;;;;;;;;;;
2023/11/04 11:38:49;;;;;;;35.53;5.68;;;14.00;99.90;;;;;;7426611;19;19911;-81
2023/11/04 11:41:25;;;;;;;38.65;5.38;;;13.90;99.90;;;;;;7408016;19;20023;-82
2023/11/04 11:47:49;;;;;;;39.00;5.50;;;14.00;99.90;;;;;;7364924;19;19999;-81
2023/11/04 11:51:05;;;;;;;;;;;;;;;;;;;;;
2023/11/04 12:32:40;;;;;;;22.60;4.18;;;15.00;96.80;;;;;;7373198;19;20011;-80
2023/11/04 12:38:19;;;;;;;14.97;2.43;;;15.20;95.30;;;;;;7386913;19;19999;-78
2023/11/04 12:40:50;;;;;;;18.30;3.00;;;15.00;94.50;;;;;;7407304;19;20010;-79
2023/11/04 12:43:45;;;;;;;12.50;2.47;;;14.90;94.50;;;;;;7388700;19;20066;-82
2023/11/04 12:46:14;;;;;;;11.23;2.35;;;15.10;94.70;;;;;;7385488;19;20010;-78
2023/11/04 12:51:56;;;;;;;23.07;3.07;;;15.00;94.30;;;;;;7388240;19;20059;-77
2023/11/04 12:54:25;;;;;;;;;;;15.00;94.30;;;;;;7384677;19;20011;-78
2023/11/04 12:56:54;;;;;;;22.40;3.05;;;15.10;94.60;;;;;;7382821;19;19907;-77
2023/11/04 12:59:24;;;;;;;28.92;3.50;;;15.30;94.70;;;;;;7394564;19;20078;-79
2023/11/04 13:01:53;;;;;;;26.23;4.28;;;15.40;94.50;;;;;;7404120;19;20086;-75
2023/11/04 13:04:22;;;;;;;31.55;3.47;;;15.40;94.40;;;;;;7383050;19;20007;-76
2023/11/04 13:06:51;;;;;;;14.82;3.17;;;15.30;94.70;;;;;;7383321;19;20007;-75
2023/11/04 13:09:23;;;;;;;16.75;3.22;;;15.30;94.80;;;;;;7383637;19;20067;-78
2023/11/04 13:11:53;;;;;;;24.10;3.40;;;15.40;94.80;;;;;;7385730;19;20050;-77
2023/11/04 13:18:08;;;;;;;44.75;11.88;;;15.20;95.00;;;;;;7300017;19;2004625;-80
2023/11/04 13:39:37;;;;;;;25.83;3.97;;;14.90;94.80;;;;;;7387689;19;19998;-77
2023/11/04 13:42:09;;;;;;;35.40;4.43;;;14.90;95.00;;;;;;7391152;19;20009;-77
2023/11/04 13:44:38;;;;;;;21.77;3.85;;;14.70;94.90;;;;;;7394045;19;20006;-77
2023/11/04 13:47:07;;;;;;;24.48;3.97;;;14.70;94.90;;;;;;7420157;19;20027;-78
2023/11/04 13:49:36;;;;;;;17.00;3.85;;;14.60;94.80;;;;;;7396158;19;20003;-78
2023/11/04 13:52:05;;;;;;;23.60;3.22;;;14.70;94.80;;;;;;7382477;19;20010;-78
2023/11/04 14:45:09;;;;;;;18.65;3.05;;;14.80;94.10;;;;;;7340914;19;20007;-81
2023/11/04 14:48:16;;;;;;;18.25;3.15;;;14.80;94.10;;;;;;7385907;19;20035;-80
2023/11/04 14:51:50;;;;;;;13.98;3.60;;;14.90;93.80;;;;;;7381697;19;20079;-81
2023/11/04 17:46:58;;;;;;;13.60;2.35;;;13.40;95.70;;;;;;7393279;19;20075;-80
2023/11/04 17:49:28;;;;;;;22.25;2.50;;;13.50;95.60;;;;;;7384081;19;20010;-77
2023/11/04 17:52:24;;;;;;;;;;;;;;;;;;;;;
2023/11/04 17:55:50;;;;;;;;;;;;;;;;;;;;;
2023/11/04 17:58:31;;;;;;;18.73;3.70;;;13.60;95.60;;;;;;7384234;19;20011;-81
2023/11/04 18:01:34;;;;;;;;;;;;;;;;;;;;;
2023/11/04 18:04:39;;;;;;;;;;;;;;;;;;;;;
2023/11/04 18:07:23;;;;;;;13.52;2.92;;;13.70;96.10;;;;;;7398110;19;20003;-78
2023/11/04 18:10:23;;;;;;;15.15;2.97;;;13.50;96.20;;;;;;7396825;19;20014;-79
2023/11/04 18:16:51;;;;;;;;;;;;;;;;;;;;;
2023/11/04 18:19:59;;;;;;;19.13;3.70;;;13.50;96.90;;;;;;7389776;19;20029;-81
2023/11/04 18:46:02;;;;;;;;;;;;;;;;;;;;;
2023/11/04 18:49:28;;;;;;;16.85;3.00;;;13.60;96.80;;;;;;7423767;19;20023;-81
2023/11/04 19:15:18;;;;;;;;;;;;;;;;;;;;;
2023/11/04 19:25:37;;;;;;;;;;;;;;;;;;;;;
2023/11/04 19:55:23;;;;;;;16.92;3.40;;;13.90;97.10;;;;;;7441399;19;20030;-82
2023/11/04 20:04:39;;;;;;;13.25;3.10;;;13.90;97.80;;;;;;7419967;19;20006;-81
2023/11/04 20:07:18;;;;;;;19.42;3.90;;;13.90;98.00;;;;;;7420935;19;20003;-81
2023/11/04 20:51:41;;;;;;;;;;;;;;;;;;;;;
2023/11/04 21:10:54;;;;;;;21.95;4.45;;;13.80;99.90;;;;;;7417243;19;20373;-78
2023/11/04 21:13:23;;;;;;;30.35;4.97;;;13.60;99.90;;;;;;7417906;19;20385;-78
2023/11/04 21:15:56;;;;;;;18.38;3.60;;;13.70;99.90;;;;;;7419825;19;20003;-79
2023/11/04 21:18:26;;;;;;;24.33;3.92;;;13.90;99.90;;;;;;7417854;19;20006;-78
2023/11/04 21:20:57;;;;;;;26.08;4.70;;;13.90;99.90;;;;;;7417130;19;20025;-78
2023/11/04 21:23:27;;;;;;;25.50;4.28;;;13.90;99.90;;;;;;7416174;19;20034;-79
2023/11/04 21:26:03;;;;;;;34.53;4.63;;;13.90;99.90;;;;;;7440547;19;20123;-77
2023/11/04 21:28:40;;;;;;;27.33;4.30;;;13.90;99.90;;;;;;7417771;19;20010;-77
2023/11/04 21:31:14;;;;;;;21.23;4.13;;;13.90;99.90;;;;;;7420321;19;20009;-77
2023/11/04 21:33:43;;;;;;;23.40;4.25;;;13.80;99.90;;;;;;7424309;19;20290;-78
2023/11/04 21:36:15;;;;;;;22.20;3.45;;;13.80;99.90;;;;;;7423452;19;20006;-78
2023/11/04 21:38:44;;;;;;;21.25;3.75;;;13.80;99.90;;;;;;7419796;19;20010;-77
2023/11/04 21:41:15;;;;;;;20.60;3.58;;;13.70;99.90;;;;;;7442621;19;20027;-77
2023/11/04 21:43:47;;;;;;;;;;;13.70;99.90;;;;;;7419275;19;20226;-77
2023/11/04 21:46:18;;;;;;;21.45;3.50;;;13.80;99.90;;;;;;7419532;19;19910;-78
2023/11/04 21:48:47;;;;;;;20.05;4.15;;;13.90;99.90;;;;;;7416479;19;20002;-77
2023/11/04 21:51:20;;;;;;;23.20;4.13;;;13.90;99.90;;;;;;7416363;19;20257;-78
2023/11/04 21:53:53;;;;;;;22.05;3.97;;;13.80;99.90;;;;;;7416747;19;20002;-78
2023/11/04 21:56:26;;;;;;;31.25;4.60;;;13.90;99.90;;;;;;7428019;19;20018;-77
2023/11/04 21:58:58;;;;;;;35.95;4.25;;;13.80;99.90;;;;;;7438425;19;20017;-78
2023/11/04 22:01:30;;;;;;;23.70;3.35;;;13.60;99.90;;;;;;7416951;19;20034;-77
2023/11/04 22:03:59;;;;;;;17.83;3.25;;;13.70;99.90;;;;;;7417310;19;20442;-77
2023/11/04 22:06:32;;;;;;;21.52;3.70;;;13.70;99.90;;;;;;7416603;19;20356;-78
2023/11/04 22:09:04;;;;;;;25.13;4.10;;;13.70;99.90;;;;;;7420164;19;20010;-78
2023/11/04 22:11:41;;;;;;;;;;;13.80;99.90;;;;;;7393762;19;20030;-78
2023/11/04 22:14:09;;;;;;;14.98;2.97;;;13.90;99.90;;;;;;7408468;19;19907;-78
2023/11/04 22:16:38;;;;;;;24.48;3.85;;;13.70;99.90;;;;;;7389669;19;20014;-78
2023/11/04 22:19:07;;;;;;;23.48;3.60;;;13.80;99.90;;;;;;7387066;19;20003;-78
2023/11/04 22:21:41;;;;;;;22.55;3.38;;;13.80;99.90;;;;;;7389907;19;20078;-78
2023/11/04 22:24:15;;;;;;;27.02;3.47;;;13.50;99.90;;;;;;7392373;19;20019;-78
2023/11/04 22:26:54;;;;;;;21.90;2.92;;;13.40;99.90;;;;;;7386472;19;20369;-77
2023/11/04 22:29:24;;;;;;;16.90;2.83;;;13.40;99.90;;;;;;7387052;19;20031;-79
2023/11/04 22:31:53;;;;;;;17.08;2.95;;;13.70;99.90;;;;;;7407607;19;20021;-77
2023/11/04 22:34:22;;;;;;;25.58;4.00;;;13.70;99.90;;;;;;7385315;19;20003;-78
2023/11/04 22:36:52;;;;;;;18.92;3.08;;;13.70;99.90;;;;;;7387713;19;20015;-78
2023/11/04 22:39:23;;;;;;;21.10;3.63;;;13.80;99.90;;;;;;7389455;19;20024;-78
2023/11/04 22:41:56;;;;;;;26.70;3.22;;;13.90;99.90;;;;;;7399177;19;20035;-77
2023/11/04 22:44:28;;;;;;;21.48;3.63;;;13.90;99.90;;;;;;7404196;19;20010;-77
2023/11/04 22:47:00;;;;;;;15.82;3.22;;;13.50;99.90;;;;;;7425474;19;20014;-77
2023/11/04 22:49:37;;;;;;;22.75;3.17;;;13.80;99.90;;;;;;7402417;19;20010;-77
2023/11/04 22:52:11;;;;;;;18.85;2.63;;;13.80;99.90;;;;;;7398268;19;20011;-77
2023/11/04 22:54:50;;;;;;;11.68;2.45;;;13.60;99.90;;;;;;7388585;19;20010;-77
2023/11/04 22:57:31;;;;;;;;;;;;;;;;;;;;;
2023/11/04 23:00:00;;;;;;;17.30;3.30;;;13.50;99.90;;;;;;7386289;19;20014;-78
2023/11/04 23:02:31;;;;;;;16.60;2.22;;;13.30;99.90;;;;;;7382851;19;20030;-77
2023/11/04 23:05:04;;;;;;;21.35;2.53;;;13.40;99.90;;;;;;7408828;19;20015;-77
2023/11/04 23:07:32;;;;;;;14.13;2.58;;;13.50;99.90;;;;;;7383777;19;20086;-78
2023/11/04 23:10:05;;;;;;;18.77;3.22;;;13.50;99.90;;;;;;7383665;19;20024;-78
2023/11/04 23:12:36;;;;;;;17.80;2.65;;;13.60;99.90;;;;;;7383123;19;20026;-78
2023/11/04 23:15:05;;;;;;;21.70;2.75;;;13.50;99.90;;;;;;7385701;19;20022;-77
2023/11/04 23:17:34;;;;;;;11.45;2.78;;;13.60;99.90;;;;;;7386872;19;20003;-76
2023/11/04 23:20:02;;;;;;;16.23;2.70;;;13.40;99.90;;;;;;7406747;19;20228;-77
2023/11/04 23:22:31;;;;;;;15.18;3.00;;;13.50;99.90;;;;;;7384739;19;20307;-77
2023/11/04 23:25:00;;;;;;;24.52;3.08;;;13.50;99.90;;;;;;7383141;19;20251;-76
2023/11/04 23:27:29;;;;;;;21.13;2.92;;;13.60;99.90;;;;;;7384686;19;20003;-79
2023/11/04 23:30:00;;;;;;;22.95;3.75;;;13.30;99.90;;;;;;7383104;19;20024;-77
2023/11/04 23:32:29;;;;;;;19.80;2.95;;;13.40;99.90;;;;;;7383601;19;20010;-76
2023/11/04 23:34:57;;;;;;;16.75;3.05;;;13.40;99.90;;;;;;7405001;19;20066;-77
2023/11/04 23:37:26;;;;;;;22.15;6.72;;;13.30;99.90;;;;;;7384422;19;20014;-77
2023/11/04 23:39:55;;;;;;;29.38;6.82;;;13.40;99.90;;;;;;7383722;19;20019;-78
2023/11/04 23:42:23;;;;;;;15.65;3.50;;;13.60;99.90;;;;;;7383989;19;20025;-76
2023/11/04 23:44:52;;;;;;;27.77;6.78;;;13.50;99.90;;;;;;7384502;19;20010;-78
2023/11/04 23:47:23;;;;;;;54.95;21.73;;;13.60;99.90;;;;;;7399003;19;20020;-78
2023/11/04 23:49:52;;;;;;;30.65;7.47;;;13.80;99.90;;;;;;7408031;19;20034;-78
2023/11/04 23:52:22;;;;;;;13.02;3.03;;;13.90;99.90;;;;;;7383748;19;20048;-77
2023/11/04 23:54:50;;;;;;;16.55;3.83;;;13.80;99.90;;;;;;7382423;19;20042;-77
2023/11/04 23:57:20;;;;;;;26.50;7.05;;;13.80;99.90;;;;;;7382783;19;19999;-77
2023/11/04 23:59:48;;;;;;;22.38;3.85;;;13.90;99.90;;;;;;7384575;19;20011;-78
